sensor_id;sensor_type;location;lat;lon;timestamp;temperature;humidity
14008;DHT22;61651;45.508;12.232;2023-03-26T00:02:57;14.30;99.90
14008;DHT22;61651;45.508;12.232;2023-03-26T00:06:03;14.30;99.90
14008;DHT22;61651;45.508;12.232;2023-03-26T00:09:08;14.30;99.90
14008;DHT22;61651;45.508;12.232;2023-03-26T00:12:14;14.40;99.90
14008;DHT22;61651;45.508;12.232;2023-03-26T00:15:16;14.40;99.90
14008;DHT22;61651;45.508;12.232;2023-03-26T00:18:18;14.30;99.90
14008;DHT22;61651;45.508;12.232;2023-03-26T00:21:23;14.30;99.90
14008;DHT22;61651;45.508;12.232;2023-03-26T00:24:27;14.30;99.90
14008;DHT22;61651;45.508;12.232;2023-03-26T00:27:31;14.30;99.90
14008;DHT22;61651;45.508;12.232;2023-03-26T00:30:33;14.20;99.90
14008;DHT22;61651;45.508;12.232;2023-03-26T00:33:36;14.20;99.90
14008;DHT22;61651;45.508;12.232;2023-03-26T00:36:38;14.20;99.90
14008;DHT22;61651;45.508;12.232;2023-03-26T00:39:41;14.10;99.90
14008;DHT22;61651;45.508;12.232;2023-03-26T00:42:45;14.10;99.90
14008;DHT22;61651;45.508;12.232;2023-03-26T00:45:49;14.10;99.90
14008;DHT22;61651;45.508;12.232;2023-03-26T00:48:51;14.10;99.90
14008;DHT22;61651;45.508;12.232;2023-03-26T00:51:53;14.20;99.90
14008;DHT22;61651;45.508;12.232;2023-03-26T00:54:55;14.20;99.90
14008;DHT22;61651;45.508;12.232;2023-03-26T00:57:58;14.20;99.90
14008;DHT22;61651;45.508;12.232;2023-03-26T01:01:03;14.20;99.90
14008;DHT22;61651;45.508;12.232;2023-03-26T01:04:26;14.20;99.90
14008;DHT22;61651;45.508;12.232;2023-03-26T01:07:29;14.20;99.90
14008;DHT22;61651;45.508;12.232;2023-03-26T01:10:31;14.00;99.90
14008;DHT22;61651;45.508;12.232;2023-03-26T01:13:41;14.00;99.90
14008;DHT22;61651;45.508;12.232;2023-03-26T01:16:46;14.00;99.90
14008;DHT22;61651;45.508;12.232;2023-03-26T01:19:55;14.00;99.90
14008;DHT22;61651;45.508;12.232;2023-03-26T01:23:00;13.90;99.90
14008;DHT22;61651;45.508;12.232;2023-03-26T01:26:11;13.80;99.90
14008;DHT22;61651;45.508;12.232;2023-03-26T01:29:21;13.80;99.90
14008;DHT22;61651;45.508;12.232;2023-03-26T01:32:41;13.90;99.90
14008;DHT22;61651;45.508;12.232;2023-03-26T01:35:51;13.80;99.90
14008;DHT22;61651;45.508;12.232;2023-03-26T01:38:58;13.80;99.90
14008;DHT22;61651;45.508;12.232;2023-03-26T01:42:07;13.80;99.90
14008;DHT22;61651;45.508;12.232;2023-03-26T01:45:14;13.90;99.90
14008;DHT22;61651;45.508;12.232;2023-03-26T01:48:17;13.90;99.90
14008;DHT22;61651;45.508;12.232;2023-03-26T01:51:27;13.90;99.90
14008;DHT22;61651;45.508;12.232;2023-03-26T01:54:30;13.80;99.90
14008;DHT22;61651;45.508;12.232;2023-03-26T01:57:40;13.70;99.90
14008;DHT22;61651;45.508;12.232;2023-03-26T02:00:52;13.70;99.90
14008;DHT22;61651;45.508;12.232;2023-03-26T02:04:03;13.60;99.90
14008;DHT22;61651;45.508;12.232;2023-03-26T02:07:09;13.60;99.90
14008;DHT22;61651;45.508;12.232;2023-03-26T02:10:18;13.60;99.90
14008;DHT22;61651;45.508;12.232;2023-03-26T02:13:23;13.60;99.90
14008;DHT22;61651;45.508;12.232;2023-03-26T02:16:26;13.60;99.90
14008;DHT22;61651;45.508;12.232;2023-03-26T02:19:28;13.60;99.90
14008;DHT22;61651;45.508;12.232;2023-03-26T02:22:30;13.60;99.90
14008;DHT22;61651;45.508;12.232;2023-03-26T02:25:32;13.50;99.90
14008;DHT22;61651;45.508;12.232;2023-03-26T02:28:37;13.30;99.90
14008;DHT22;61651;45.508;12.232;2023-03-26T02:31:39;13.20;99.90
14008;DHT22;61651;45.508;12.232;2023-03-26T02:34:42;13.20;99.90
14008;DHT22;61651;45.508;12.232;2023-03-26T02:37:44;13.30;99.90
14008;DHT22;61651;45.508;12.232;2023-03-26T02:40:46;13.40;99.90
14008;DHT22;61651;45.508;12.232;2023-03-26T02:43:50;13.30;99.90
14008;DHT22;61651;45.508;12.232;2023-03-26T02:46:52;13.30;99.90
14008;DHT22;61651;45.508;12.232;2023-03-26T02:49:54;13.30;99.90
14008;DHT22;61651;45.508;12.232;2023-03-26T02:52:56;13.20;99.90
14008;DHT22;61651;45.508;12.232;2023-03-26T02:55:59;13.10;99.90
14008;DHT22;61651;45.508;12.232;2023-03-26T02:59:02;13.00;99.90
14008;DHT22;61651;45.508;12.232;2023-03-26T03:02:05;13.10;99.90
14008;DHT22;61651;45.508;12.232;2023-03-26T03:05:07;13.20;99.90
14008;DHT22;61651;45.508;12.232;2023-03-26T03:08:09;13.30;99.90
14008;DHT22;61651;45.508;12.232;2023-03-26T03:11:13;13.30;99.90
14008;DHT22;61651;45.508;12.232;2023-03-26T03:14:17;13.40;99.90
14008;DHT22;61651;45.508;12.232;2023-03-26T03:17:19;13.40;99.90
14008;DHT22;61651;45.508;12.232;2023-03-26T03:20:21;13.40;99.90
14008;DHT22;61651;45.508;12.232;2023-03-26T03:23:23;13.40;99.90
14008;DHT22;61651;45.508;12.232;2023-03-26T03:26:25;13.40;99.90
14008;DHT22;61651;45.508;12.232;2023-03-26T03:29:30;13.40;99.90
14008;DHT22;61651;45.508;12.232;2023-03-26T03:32:32;13.30;99.90
14008;DHT22;61651;45.508;12.232;2023-03-26T03:35:34;13.20;99.90
14008;DHT22;61651;45.508;12.232;2023-03-26T03:38:37;13.10;99.90
14008;DHT22;61651;45.508;12.232;2023-03-26T03:41:39;13.10;99.90
14008;DHT22;61651;45.508;12.232;2023-03-26T03:44:42;13.20;99.90
14008;DHT22;61651;45.508;12.232;2023-03-26T03:47:44;13.30;99.90
14008;DHT22;61651;45.508;12.232;2023-03-26T03:50:46;13.30;99.90
14008;DHT22;61651;45.508;12.232;2023-03-26T03:53:48;13.40;99.90
14008;DHT22;61651;45.508;12.232;2023-03-26T03:56:52;13.40;99.90
14008;DHT22;61651;45.508;12.232;2023-03-26T03:59:55;13.30;99.90
14008;DHT22;61651;45.508;12.232;2023-03-26T04:02:58;13.30;99.90
14008;DHT22;61651;45.508;12.232;2023-03-26T04:06:05;13.30;99.90
14008;DHT22;61651;45.508;12.232;2023-03-26T04:09:08;13.30;99.90
14008;DHT22;61651;45.508;12.232;2023-03-26T04:12:10;13.20;99.90
14008;DHT22;61651;45.508;12.232;2023-03-26T04:15:13;13.20;99.90
14008;DHT22;61651;45.508;12.232;2023-03-26T04:18:15;13.20;99.90
14008;DHT22;61651;45.508;12.232;2023-03-26T04:21:17;13.20;99.90
14008;DHT22;61651;45.508;12.232;2023-03-26T04:24:19;13.10;99.90
14008;DHT22;61651;45.508;12.232;2023-03-26T04:27:28;13.00;99.90
14008;DHT22;61651;45.508;12.232;2023-03-26T04:30:33;13.00;99.90
14008;DHT22;61651;45.508;12.232;2023-03-26T04:33:35;13.00;99.90
14008;DHT22;61651;45.508;12.232;2023-03-26T04:36:39;13.00;99.90
14008;DHT22;61651;45.508;12.232;2023-03-26T04:39:41;13.10;99.90
14008;DHT22;61651;45.508;12.232;2023-03-26T04:42:44;13.00;99.90
14008;DHT22;61651;45.508;12.232;2023-03-26T04:45:48;13.10;99.90
14008;DHT22;61651;45.508;12.232;2023-03-26T04:48:50;13.00;99.90
14008;DHT22;61651;45.508;12.232;2023-03-26T04:51:52;13.00;99.90
14008;DHT22;61651;45.508;12.232;2023-03-26T04:54:54;13.00;99.90
14008;DHT22;61651;45.508;12.232;2023-03-26T04:57:57;13.00;99.90
14008;DHT22;61651;45.508;12.232;2023-03-26T05:01:04;12.90;99.90
14008;DHT22;61651;45.508;12.232;2023-03-26T05:04:07;12.80;99.90
14008;DHT22;61651;45.508;12.232;2023-03-26T05:07:10;12.80;99.90
14008;DHT22;61651;45.508;12.232;2023-03-26T05:10:13;12.70;99.90
14008;DHT22;61651;45.508;12.232;2023-03-26T05:13:16;12.60;99.90
14008;DHT22;61651;45.508;12.232;2023-03-26T05:16:19;12.60;99.90
14008;DHT22;61651;45.508;12.232;2023-03-26T05:19:21;12.70;99.90
14008;DHT22;61651;45.508;12.232;2023-03-26T05:22:23;12.80;99.90
14008;DHT22;61651;45.508;12.232;2023-03-26T05:25:25;12.80;99.90
14008;DHT22;61651;45.508;12.232;2023-03-26T05:28:27;12.70;99.90
14008;DHT22;61651;45.508;12.232;2023-03-26T05:31:31;12.60;99.90
14008;DHT22;61651;45.508;12.232;2023-03-26T05:34:33;12.60;99.90
14008;DHT22;61651;45.508;12.232;2023-03-26T05:37:35;12.70;99.90
14008;DHT22;61651;45.508;12.232;2023-03-26T05:40:38;12.70;99.90
14008;DHT22;61651;45.508;12.232;2023-03-26T05:43:40;12.80;99.90
14008;DHT22;61651;45.508;12.232;2023-03-26T05:46:44;12.80;99.90
14008;DHT22;61651;45.508;12.232;2023-03-26T05:49:46;12.80;99.90
14008;DHT22;61651;45.508;12.232;2023-03-26T05:52:48;12.80;99.90
14008;DHT22;61651;45.508;12.232;2023-03-26T05:55:50;12.80;99.90
14008;DHT22;61651;45.508;12.232;2023-03-26T05:58:57;12.80;99.90
14008;DHT22;61651;45.508;12.232;2023-03-26T06:02:00;12.80;99.90
14008;DHT22;61651;45.508;12.232;2023-03-26T06:05:03;12.80;99.90
14008;DHT22;61651;45.508;12.232;2023-03-26T06:08:05;12.90;99.90
14008;DHT22;61651;45.508;12.232;2023-03-26T06:11:09;13.00;99.90
14008;DHT22;61651;45.508;12.232;2023-03-26T06:14:12;13.10;99.90
14008;DHT22;61651;45.508;12.232;2023-03-26T06:17:15;13.30;99.90
14008;DHT22;61651;45.508;12.232;2023-03-26T06:20:17;13.30;99.90
14008;DHT22;61651;45.508;12.232;2023-03-26T06:23:19;13.20;99.90
14008;DHT22;61651;45.508;12.232;2023-03-26T06:26:22;13.30;99.90
14008;DHT22;61651;45.508;12.232;2023-03-26T06:29:24;13.40;99.90
14008;DHT22;61651;45.508;12.232;2023-03-26T06:32:27;13.40;99.90
14008;DHT22;61651;45.508;12.232;2023-03-26T06:35:30;13.50;99.90
14008;DHT22;61651;45.508;12.232;2023-03-26T06:38:32;13.60;99.90
14008;DHT22;61651;45.508;12.232;2023-03-26T06:41:34;13.70;99.90
14008;DHT22;61651;45.508;12.232;2023-03-26T06:44:36;13.80;99.90
14008;DHT22;61651;45.508;12.232;2023-03-26T06:47:39;13.80;99.90
14008;DHT22;61651;45.508;12.232;2023-03-26T06:50:41;13.90;99.90
14008;DHT22;61651;45.508;12.232;2023-03-26T06:53:43;14.00;99.90
14008;DHT22;61651;45.508;12.232;2023-03-26T06:56:45;14.00;99.90
14008;DHT22;61651;45.508;12.232;2023-03-26T06:59:47;14.10;99.90
14008;DHT22;61651;45.508;12.232;2023-03-26T07:02:51;14.00;99.90
14008;DHT22;61651;45.508;12.232;2023-03-26T07:05:53;14.00;99.90
14008;DHT22;61651;45.508;12.232;2023-03-26T07:08:55;14.10;99.90
14008;DHT22;61651;45.508;12.232;2023-03-26T07:11:58;14.10;99.90
14008;DHT22;61651;45.508;12.232;2023-03-26T07:15:01;14.20;99.90
14008;DHT22;61651;45.508;12.232;2023-03-26T07:18:05;14.30;99.90
14008;DHT22;61651;45.508;12.232;2023-03-26T07:21:08;14.40;99.90
14008;DHT22;61651;45.508;12.232;2023-03-26T07:24:11;14.60;99.90
14008;DHT22;61651;45.508;12.232;2023-03-26T07:27:25;14.70;99.90
14008;DHT22;61651;45.508;12.232;2023-03-26T07:30:35;14.80;99.90
14008;DHT22;61651;45.508;12.232;2023-03-26T07:33:50;14.90;99.90
14008;DHT22;61651;45.508;12.232;2023-03-26T07:36:58;15.00;99.90
14008;DHT22;61651;45.508;12.232;2023-03-26T07:40:08;15.10;99.90
14008;DHT22;61651;45.508;12.232;2023-03-26T07:43:21;15.20;99.90
14008;DHT22;61651;45.508;12.232;2023-03-26T07:46:28;15.30;99.90
14008;DHT22;61651;45.508;12.232;2023-03-26T07:49:33;15.50;99.90
14008;DHT22;61651;45.508;12.232;2023-03-26T07:52:37;15.60;99.90
14008;DHT22;61651;45.508;12.232;2023-03-26T07:55:48;15.60;99.90
14008;DHT22;61651;45.508;12.232;2023-03-26T07:59:03;15.80;99.90
14008;DHT22;61651;45.508;12.232;2023-03-26T08:02:36;15.90;99.90
14008;DHT22;61651;45.508;12.232;2023-03-26T08:05:49;16.00;99.90
14008;DHT22;61651;45.508;12.232;2023-03-26T08:08:58;15.90;99.90
14008;DHT22;61651;45.508;12.232;2023-03-26T08:12:06;16.00;99.90
14008;DHT22;61651;45.508;12.232;2023-03-26T08:15:17;16.10;99.90
14008;DHT22;61651;45.508;12.232;2023-03-26T08:18:29;16.10;99.90
14008;DHT22;61651;45.508;12.232;2023-03-26T08:21:41;16.20;99.90
14008;DHT22;61651;45.508;12.232;2023-03-26T08:25:01;16.30;99.90
14008;DHT22;61651;45.508;12.232;2023-03-26T08:28:15;16.40;99.90
14008;DHT22;61651;45.508;12.232;2023-03-26T08:31:27;16.50;99.90
14008;DHT22;61651;45.508;12.232;2023-03-26T08:34:32;16.60;99.90
14008;DHT22;61651;45.508;12.232;2023-03-26T08:37:35;16.70;99.90
14008;DHT22;61651;45.508;12.232;2023-03-26T08:44:45;16.80;99.90
14008;DHT22;61651;45.508;12.232;2023-03-26T08:55:09;17.10;99.90
14008;DHT22;61651;45.508;12.232;2023-03-26T09:20:40;17.80;99.90
14008;DHT22;61651;45.508;12.232;2023-03-26T09:24:42;18.00;99.90
14008;DHT22;61651;45.508;12.232;2023-03-26T09:28:29;18.10;99.90
14008;DHT22;61651;45.508;12.232;2023-03-26T09:35:12;18.20;99.90
14008;DHT22;61651;45.508;12.232;2023-03-26T09:38:35;18.30;99.90
14008;DHT22;61651;45.508;12.232;2023-03-26T09:41:42;18.40;99.90
14008;DHT22;61651;45.508;12.232;2023-03-26T09:45:02;18.40;99.90
14008;DHT22;61651;45.508;12.232;2023-03-26T09:51:56;18.60;99.90
14008;DHT22;61651;45.508;12.232;2023-03-26T09:55:29;18.60;99.90
14008;DHT22;61651;45.508;12.232;2023-03-26T09:59:07;18.70;99.90
14008;DHT22;61651;45.508;12.232;2023-03-26T10:05:57;19.00;99.90
14008;DHT22;61651;45.508;12.232;2023-03-26T10:09:24;19.10;99.90
14008;DHT22;61651;45.508;12.232;2023-03-26T10:12:34;19.20;99.90
14008;DHT22;61651;45.508;12.232;2023-03-26T10:15:50;19.30;99.90
14008;DHT22;61651;45.508;12.232;2023-03-26T10:19:01;19.40;99.90
14008;DHT22;61651;45.508;12.232;2023-03-26T10:22:19;19.50;99.90
14008;DHT22;61651;45.508;12.232;2023-03-26T10:25:38;19.60;99.90
14008;DHT22;61651;45.508;12.232;2023-03-26T10:32:21;19.70;99.90
14008;DHT22;61651;45.508;12.232;2023-03-26T10:35:38;19.70;99.90
14008;DHT22;61651;45.508;12.232;2023-03-26T10:42:54;19.90;99.90
14008;DHT22;61651;45.508;12.232;2023-03-26T10:49:49;19.90;99.90
14008;DHT22;61651;45.508;12.232;2023-03-26T10:52:59;19.90;99.90
14008;DHT22;61651;45.508;12.232;2023-03-26T10:56:08;20.00;99.90
14008;DHT22;61651;45.508;12.232;2023-03-26T10:59:14;20.00;99.90
14008;DHT22;61651;45.508;12.232;2023-03-26T11:02:26;20.10;99.90
14008;DHT22;61651;45.508;12.232;2023-03-26T11:05:43;20.20;99.90
14008;DHT22;61651;45.508;12.232;2023-03-26T11:08:51;20.20;99.90
14008;DHT22;61651;45.508;12.232;2023-03-26T11:12:02;20.30;99.90
14008;DHT22;61651;45.508;12.232;2023-03-26T11:15:15;20.30;99.90
14008;DHT22;61651;45.508;12.232;2023-03-26T11:18:22;20.40;99.90
14008;DHT22;61651;45.508;12.232;2023-03-26T11:21:31;20.40;99.90
14008;DHT22;61651;45.508;12.232;2023-03-26T11:28:18;20.40;99.90
14008;DHT22;61651;45.508;12.232;2023-03-26T11:31:31;20.30;99.90
14008;DHT22;61651;45.508;12.232;2023-03-26T11:34:37;20.40;99.90
14008;DHT22;61651;45.508;12.232;2023-03-26T11:37:43;20.40;99.90
14008;DHT22;61651;45.508;12.232;2023-03-26T11:40:49;20.40;99.90
14008;DHT22;61651;45.508;12.232;2023-03-26T11:43:56;20.40;99.90
14008;DHT22;61651;45.508;12.232;2023-03-26T11:47:04;20.40;99.90
14008;DHT22;61651;45.508;12.232;2023-03-26T11:50:15;20.50;99.90
14008;DHT22;61651;45.508;12.232;2023-03-26T11:53:27;20.60;99.90
14008;DHT22;61651;45.508;12.232;2023-03-26T11:56:32;20.60;99.90
14008;DHT22;61651;45.508;12.232;2023-03-26T11:59:36;20.80;99.90
14008;DHT22;61651;45.508;12.232;2023-03-26T12:02:40;20.90;99.90
14008;DHT22;61651;45.508;12.232;2023-03-26T12:05:49;21.20;99.90
14008;DHT22;61651;45.508;12.232;2023-03-26T12:08:51;21.40;99.90
14008;DHT22;61651;45.508;12.232;2023-03-26T12:11:58;21.60;99.90
14008;DHT22;61651;45.508;12.232;2023-03-26T12:15:00;21.80;99.90
14008;DHT22;61651;45.508;12.232;2023-03-26T12:18:22;22.00;99.90
14008;DHT22;61651;45.508;12.232;2023-03-26T12:21:25;22.10;99.90
14008;DHT22;61651;45.508;12.232;2023-03-26T12:24:29;22.30;99.90
14008;DHT22;61651;45.508;12.232;2023-03-26T12:27:31;22.50;99.90
14008;DHT22;61651;45.508;12.232;2023-03-26T12:30:35;22.60;99.90
14008;DHT22;61651;45.508;12.232;2023-03-26T12:33:37;22.80;99.90
14008;DHT22;61651;45.508;12.232;2023-03-26T12:36:47;22.90;99.90
14008;DHT22;61651;45.508;12.232;2023-03-26T12:40:05;23.00;99.90
14008;DHT22;61651;45.508;12.232;2023-03-26T12:43:22;23.20;99.90
14008;DHT22;61651;45.508;12.232;2023-03-26T12:46:28;23.30;99.90
14008;DHT22;61651;45.508;12.232;2023-03-26T12:49:31;23.40;99.90
14008;DHT22;61651;45.508;12.232;2023-03-26T12:52:55;23.60;99.90
14008;DHT22;61651;45.508;12.232;2023-03-26T12:56:00;23.60;99.90
14008;DHT22;61651;45.508;12.232;2023-03-26T12:59:19;23.70;99.90
14008;DHT22;61651;45.508;12.232;2023-03-26T13:02:51;23.70;99.90
14008;DHT22;61651;45.508;12.232;2023-03-26T13:06:13;23.70;99.90
14008;DHT22;61651;45.508;12.232;2023-03-26T13:12:55;23.90;99.90
14008;DHT22;61651;45.508;12.232;2023-03-26T13:16:08;24.00;99.90
14008;DHT22;61651;45.508;12.232;2023-03-26T13:19:15;24.30;99.90
14008;DHT22;61651;45.508;12.232;2023-03-26T13:22:26;24.30;99.90
14008;DHT22;61651;45.508;12.232;2023-03-26T13:25:36;24.10;99.90
14008;DHT22;61651;45.508;12.232;2023-03-26T13:28:48;24.00;99.90
14008;DHT22;61651;45.508;12.232;2023-03-26T13:31:58;23.90;99.90
14008;DHT22;61651;45.508;12.232;2023-03-26T13:35:21;23.70;99.90
14008;DHT22;61651;45.508;12.232;2023-03-26T13:38:34;23.50;99.90
14008;DHT22;61651;45.508;12.232;2023-03-26T13:41:50;23.50;99.90
14008;DHT22;61651;45.508;12.232;2023-03-26T13:45:02;23.50;99.90
14008;DHT22;61651;45.508;12.232;2023-03-26T13:48:11;23.40;99.90
14008;DHT22;61651;45.508;12.232;2023-03-26T13:51:17;23.50;99.90
14008;DHT22;61651;45.508;12.232;2023-03-26T13:54:26;23.60;99.90
14008;DHT22;61651;45.508;12.232;2023-03-26T13:57:33;23.70;99.90
14008;DHT22;61651;45.508;12.232;2023-03-26T14:00:50;23.70;99.90
14008;DHT22;61651;45.508;12.232;2023-03-26T14:03:59;23.60;99.90
14008;DHT22;61651;45.508;12.232;2023-03-26T14:07:06;23.50;99.90
14008;DHT22;61651;45.508;12.232;2023-03-26T14:10:14;23.20;99.90
14008;DHT22;61651;45.508;12.232;2023-03-26T14:13:21;22.90;99.90
14008;DHT22;61651;45.508;12.232;2023-03-26T14:16:28;22.60;99.90
14008;DHT22;61651;45.508;12.232;2023-03-26T14:23:33;22.20;99.90
14008;DHT22;61651;45.508;12.232;2023-03-26T14:26:56;21.90;99.90
14008;DHT22;61651;45.508;12.232;2023-03-26T14:33:44;21.70;99.90
14008;DHT22;61651;45.508;12.232;2023-03-26T14:37:15;21.60;99.90
14008;DHT22;61651;45.508;12.232;2023-03-26T14:40:28;21.40;99.90
14008;DHT22;61651;45.508;12.232;2023-03-26T14:47:17;21.10;99.90
14008;DHT22;61651;45.508;12.232;2023-03-26T14:50:42;20.90;99.90
14008;DHT22;61651;45.508;12.232;2023-03-26T14:53:50;20.70;99.90
14008;DHT22;61651;45.508;12.232;2023-03-26T15:04:36;20.20;99.90
14008;DHT22;61651;45.508;12.232;2023-03-26T15:08:07;20.10;99.90
14008;DHT22;61651;45.508;12.232;2023-03-26T15:11:24;19.90;99.90
14008;DHT22;61651;45.508;12.232;2023-03-26T15:15:09;19.80;99.90
14008;DHT22;61651;45.508;12.232;2023-03-26T15:18:46;19.60;99.90
14008;DHT22;61651;45.508;12.232;2023-03-26T15:22:16;19.50;99.90
14008;DHT22;61651;45.508;12.232;2023-03-26T15:36:47;19.20;99.90
14008;DHT22;61651;45.508;12.232;2023-03-26T15:40:34;19.20;99.90
14008;DHT22;61651;45.508;12.232;2023-03-26T15:47:38;19.10;99.90
14008;DHT22;61651;45.508;12.232;2023-03-26T15:50:51;19.10;99.90
14008;DHT22;61651;45.508;12.232;2023-03-26T15:54:01;19.10;99.90
14008;DHT22;61651;45.508;12.232;2023-03-26T15:57:17;19.00;99.90
14008;DHT22;61651;45.508;12.232;2023-03-26T16:00:22;19.00;99.90
14008;DHT22;61651;45.508;12.232;2023-03-26T16:03:31;18.90;99.90
14008;DHT22;61651;45.508;12.232;2023-03-26T16:06:46;18.90;99.90
14008;DHT22;61651;45.508;12.232;2023-03-26T16:09:55;18.70;99.90
14008;DHT22;61651;45.508;12.232;2023-03-26T16:13:25;18.70;99.90
14008;DHT22;61651;45.508;12.232;2023-03-26T16:16:51;18.70;99.90
14008;DHT22;61651;45.508;12.232;2023-03-26T16:20:14;18.70;99.90
14008;DHT22;61651;45.508;12.232;2023-03-26T16:23:26;18.70;99.90
14008;DHT22;61651;45.508;12.232;2023-03-26T16:26:36;18.70;99.90
14008;DHT22;61651;45.508;12.232;2023-03-26T16:30:07;18.60;99.90
14008;DHT22;61651;45.508;12.232;2023-03-26T16:33:17;18.60;99.90
14008;DHT22;61651;45.508;12.232;2023-03-26T16:36:25;18.60;99.90
14008;DHT22;61651;45.508;12.232;2023-03-26T16:39:38;18.60;99.90
14008;DHT22;61651;45.508;12.232;2023-03-26T16:42:45;18.60;99.90
14008;DHT22;61651;45.508;12.232;2023-03-26T16:45:56;18.50;99.90
14008;DHT22;61651;45.508;12.232;2023-03-26T16:49:14;18.30;99.90
14008;DHT22;61651;45.508;12.232;2023-03-26T16:52:24;18.10;99.90
14008;DHT22;61651;45.508;12.232;2023-03-26T16:55:36;18.00;99.90
14008;DHT22;61651;45.508;12.232;2023-03-26T16:58:49;17.60;99.90
14008;DHT22;61651;45.508;12.232;2023-03-26T17:02:02;16.80;99.90
14008;DHT22;61651;45.508;12.232;2023-03-26T17:05:17;16.70;99.90
14008;DHT22;61651;45.508;12.232;2023-03-26T17:08:23;16.50;99.90
14008;DHT22;61651;45.508;12.232;2023-03-26T17:11:37;16.30;99.90
14008;DHT22;61651;45.508;12.232;2023-03-26T17:14:54;16.10;99.90
14008;DHT22;61651;45.508;12.232;2023-03-26T17:18:15;16.20;99.90
14008;DHT22;61651;45.508;12.232;2023-03-26T17:21:22;16.30;99.90
14008;DHT22;61651;45.508;12.232;2023-03-26T17:24:36;16.00;99.90
14008;DHT22;61651;45.508;12.232;2023-03-26T17:27:46;15.90;99.90
14008;DHT22;61651;45.508;12.232;2023-03-26T17:30:59;15.90;99.90
14008;DHT22;61651;45.508;12.232;2023-03-26T17:37:52;15.90;99.90
14008;DHT22;61651;45.508;12.232;2023-03-26T17:40:55;15.90;99.90
14008;DHT22;61651;45.508;12.232;2023-03-26T17:43:57;16.00;99.90
14008;DHT22;61651;45.508;12.232;2023-03-26T17:47:00;16.00;99.90
14008;DHT22;61651;45.508;12.232;2023-03-26T17:50:06;16.00;99.90
14008;DHT22;61651;45.508;12.232;2023-03-26T17:53:17;15.70;99.90
14008;DHT22;61651;45.508;12.232;2023-03-26T17:56:26;15.70;99.90
14008;DHT22;61651;45.508;12.232;2023-03-26T17:59:31;15.80;99.90
14008;DHT22;61651;45.508;12.232;2023-03-26T18:02:36;15.70;99.90
14008;DHT22;61651;45.508;12.232;2023-03-26T18:05:40;15.70;99.90
14008;DHT22;61651;45.508;12.232;2023-03-26T18:09:03;15.60;99.90
14008;DHT22;61651;45.508;12.232;2023-03-26T18:12:37;15.50;99.90
14008;DHT22;61651;45.508;12.232;2023-03-26T18:15:50;15.50;99.90
14008;DHT22;61651;45.508;12.232;2023-03-26T18:18:59;15.20;99.90
14008;DHT22;61651;45.508;12.232;2023-03-26T18:22:03;14.90;99.90
14008;DHT22;61651;45.508;12.232;2023-03-26T18:25:21;14.80;99.90
14008;DHT22;61651;45.508;12.232;2023-03-26T18:28:34;14.50;99.90
14008;DHT22;61651;45.508;12.232;2023-03-26T18:31:40;14.20;99.90
14008;DHT22;61651;45.508;12.232;2023-03-26T18:34:46;14.10;99.90
14008;DHT22;61651;45.508;12.232;2023-03-26T18:37:50;14.00;99.90
14008;DHT22;61651;45.508;12.232;2023-03-26T18:40:55;13.90;99.90
14008;DHT22;61651;45.508;12.232;2023-03-26T18:44:01;13.50;99.90
14008;DHT22;61651;45.508;12.232;2023-03-26T18:47:04;13.60;99.90
14008;DHT22;61651;45.508;12.232;2023-03-26T18:50:14;13.80;99.90
14008;DHT22;61651;45.508;12.232;2023-03-26T18:53:18;13.90;99.90
14008;DHT22;61651;45.508;12.232;2023-03-26T18:56:29;13.90;99.90
14008;DHT22;61651;45.508;12.232;2023-03-26T18:59:35;14.00;99.90
14008;DHT22;61651;45.508;12.232;2023-03-26T19:02:38;14.20;99.90
14008;DHT22;61651;45.508;12.232;2023-03-26T19:05:40;14.30;99.90
14008;DHT22;61651;45.508;12.232;2023-03-26T19:08:43;14.40;99.90
14008;DHT22;61651;45.508;12.232;2023-03-26T19:11:48;14.60;99.90
14008;DHT22;61651;45.508;12.232;2023-03-26T19:14:53;14.80;99.90
14008;DHT22;61651;45.508;12.232;2023-03-26T19:17:58;14.20;99.90
14008;DHT22;61651;45.508;12.232;2023-03-26T19:21:06;12.60;99.90
14008;DHT22;61651;45.508;12.232;2023-03-26T19:24:09;12.00;99.90
14008;DHT22;61651;45.508;12.232;2023-03-26T19:27:14;11.70;99.90
14008;DHT22;61651;45.508;12.232;2023-03-26T19:30:19;11.70;99.90
14008;DHT22;61651;45.508;12.232;2023-03-26T19:33:33;11.60;99.90
14008;DHT22;61651;45.508;12.232;2023-03-26T19:36:49;11.60;99.90
14008;DHT22;61651;45.508;12.232;2023-03-26T19:40:00;12.00;99.90
14008;DHT22;61651;45.508;12.232;2023-03-26T19:43:11;12.40;99.90
14008;DHT22;61651;45.508;12.232;2023-03-26T19:46:14;12.80;99.90
14008;DHT22;61651;45.508;12.232;2023-03-26T19:49:26;13.00;99.90
14008;DHT22;61651;45.508;12.232;2023-03-26T19:52:32;13.20;99.90
14008;DHT22;61651;45.508;12.232;2023-03-26T19:55:34;13.50;99.90
14008;DHT22;61651;45.508;12.232;2023-03-26T19:58:38;13.80;99.90
14008;DHT22;61651;45.508;12.232;2023-03-26T20:01:41;14.10;99.90
14008;DHT22;61651;45.508;12.232;2023-03-26T20:04:43;14.30;99.90
14008;DHT22;61651;45.508;12.232;2023-03-26T20:07:45;14.30;99.90
14008;DHT22;61651;45.508;12.232;2023-03-26T20:10:49;14.40;99.90
14008;DHT22;61651;45.508;12.232;2023-03-26T20:13:52;14.40;99.90
14008;DHT22;61651;45.508;12.232;2023-03-26T20:16:55;14.30;99.90
14008;DHT22;61651;45.508;12.232;2023-03-26T20:19:57;14.20;99.90
14008;DHT22;61651;45.508;12.232;2023-03-26T20:22:59;14.00;99.90
14008;DHT22;61651;45.508;12.232;2023-03-26T20:26:01;13.60;99.90
14008;DHT22;61651;45.508;12.232;2023-03-26T20:29:05;13.50;99.90
14008;DHT22;61651;45.508;12.232;2023-03-26T20:32:17;13.30;99.90
14008;DHT22;61651;45.508;12.232;2023-03-26T20:35:21;12.90;99.90
14008;DHT22;61651;45.508;12.232;2023-03-26T20:38:23;13.10;99.90
14008;DHT22;61651;45.508;12.232;2023-03-26T20:41:26;12.90;99.90
14008;DHT22;61651;45.508;12.232;2023-03-26T20:44:30;12.80;99.90
14008;DHT22;61651;45.508;12.232;2023-03-26T20:47:31;12.20;99.90
14008;DHT22;61651;45.508;12.232;2023-03-26T20:50:34;12.00;99.90
14008;DHT22;61651;45.508;12.232;2023-03-26T20:53:36;12.30;99.90
14008;DHT22;61651;45.508;12.232;2023-03-26T20:56:41;12.60;99.90
14008;DHT22;61651;45.508;12.232;2023-03-26T20:59:44;12.90;99.90
14008;DHT22;61651;45.508;12.232;2023-03-26T21:02:46;13.30;99.90
14008;DHT22;61651;45.508;12.232;2023-03-26T21:05:49;13.30;99.90
14008;DHT22;61651;45.508;12.232;2023-03-26T21:08:52;13.40;99.90
14008;DHT22;61651;45.508;12.232;2023-03-26T21:11:58;13.60;99.90